sensor_id;sensor_type;location;lat;lon;timestamp;pressure;altitude;pressure_sealevel;temperature
74915;BMP280;63475;45.140;-75.616;2023-01-19T00:00:06;100493.78;;;-0.17
74915;BMP280;63475;45.140;-75.616;2023-01-19T00:01:10;100497.88;;;-0.16
74915;BMP280;63475;45.140;-75.616;2023-01-19T00:02:11;100492.13;;;-0.22
74915;BMP280;63475;45.140;-75.616;2023-01-19T00:03:11;100511.63;;;-0.16
74915;BMP280;63475;45.140;-75.616;2023-01-19T00:04:15;100523.91;;;-0.16
74915;BMP280;63475;45.140;-75.616;2023-01-19T00:05:16;100525.31;;;-0.19
74915;BMP280;63475;45.140;-75.616;2023-01-19T00:06:17;100538.34;;;-0.19
74915;BMP280;63475;45.140;-75.616;2023-01-19T00:07:18;100515.84;;;-0.36
74915;BMP280;63475;45.140;-75.616;2023-01-19T00:08:19;100553.50;;;-0.21
74915;BMP280;63475;45.140;-75.616;2023-01-19T00:09:20;100549.59;;;-0.27
74915;BMP280;63475;45.140;-75.616;2023-01-19T00:10:21;100565.34;;;-0.24
74915;BMP280;63475;45.140;-75.616;2023-01-19T00:11:22;100563.38;;;-0.27
74915;BMP280;63475;45.140;-75.616;2023-01-19T00:12:24;100570.09;;;-0.26
74915;BMP280;63475;45.140;-75.616;2023-01-19T00:13:25;100547.59;;;-0.42
74915;BMP280;63475;45.140;-75.616;2023-01-19T00:14:26;100565.41;;;-0.32
74915;BMP280;63475;45.140;-75.616;2023-01-19T00:15:27;100558.91;;;-0.38
74915;BMP280;63475;45.140;-75.616;2023-01-19T00:16:28;100573.53;;;-0.34
74915;BMP280;63475;45.140;-75.616;2023-01-19T00:17:29;100581.03;;;-0.32
74915;BMP280;63475;45.140;-75.616;2023-01-19T00:18:30;100570.38;;;-0.39
74915;BMP280;63475;45.140;-75.616;2023-01-19T00:19:31;100583.38;;;-0.39
74915;BMP280;63475;45.140;-75.616;2023-01-19T00:20:32;100565.56;;;-0.49
74915;BMP280;63475;45.140;-75.616;2023-01-19T00:21:34;100588.28;;;-0.38
74915;BMP280;63475;45.140;-75.616;2023-01-19T00:22:35;100588.59;;;-0.39
74915;BMP280;63475;45.140;-75.616;2023-01-19T00:23:36;100589.56;;;-0.44
74915;BMP280;63475;45.140;-75.616;2023-01-19T00:24:37;100579.91;;;-0.43
74915;BMP280;63475;45.140;-75.616;2023-01-19T00:25:38;100551.75;;;-0.62
74915;BMP280;63475;45.140;-75.616;2023-01-19T00:26:41;100587.75;;;-0.52
74915;BMP280;63475;45.140;-75.616;2023-01-19T00:27:43;100592.75;;;-0.47
74915;BMP280;63475;45.140;-75.616;2023-01-19T00:28:49;100592.53;;;-0.54
74915;BMP280;63475;45.140;-75.616;2023-01-19T00:29:50;100608.25;;;-0.50
74915;BMP280;63475;45.140;-75.616;2023-01-19T00:30:51;100597.03;;;-0.63
74915;BMP280;63475;45.140;-75.616;2023-01-19T00:31:52;100611.28;;;-0.48
74915;BMP280;63475;45.140;-75.616;2023-01-19T00:32:53;100614.22;;;-0.50
74915;BMP280;63475;45.140;-75.616;2023-01-19T00:33:53;100611.63;;;-0.50
74915;BMP280;63475;45.140;-75.616;2023-01-19T00:34:54;100608.56;;;-0.52
74915;BMP280;63475;45.140;-75.616;2023-01-19T00:35:55;100608.75;;;-0.57
74915;BMP280;63475;45.140;-75.616;2023-01-19T00:36:56;100601.72;;;-0.57
74915;BMP280;63475;45.140;-75.616;2023-01-19T00:37:58;100602.16;;;-0.55
74915;BMP280;63475;45.140;-75.616;2023-01-19T00:38:59;100594.81;;;-0.52
74915;BMP280;63475;45.140;-75.616;2023-01-19T00:40:00;100612.47;;;-0.37
74915;BMP280;63475;45.140;-75.616;2023-01-19T00:41:01;100614.19;;;-0.41
74915;BMP280;63475;45.140;-75.616;2023-01-19T00:42:02;100611.94;;;-0.51
74915;BMP280;63475;45.140;-75.616;2023-01-19T00:43:22;100592.66;;;-0.71
74915;BMP280;63475;45.140;-75.616;2023-01-19T00:44:23;100582.47;;;-0.85
74915;BMP280;63475;45.140;-75.616;2023-01-19T00:45:24;100619.09;;;-0.69
74915;BMP280;63475;45.140;-75.616;2023-01-19T00:46:25;100597.44;;;-0.82
74915;BMP280;63475;45.140;-75.616;2023-01-19T00:47:27;100614.09;;;-0.74
74915;BMP280;63475;45.140;-75.616;2023-01-19T00:48:28;100616.38;;;-0.73
74915;BMP280;63475;45.140;-75.616;2023-01-19T00:49:30;100594.41;;;-0.84
74915;BMP280;63475;45.140;-75.616;2023-01-19T00:50:31;100619.31;;;-0.74
74915;BMP280;63475;45.140;-75.616;2023-01-19T00:51:32;100611.94;;;-0.72
74915;BMP280;63475;45.140;-75.616;2023-01-19T00:52:33;100602.41;;;-0.89
74915;BMP280;63475;45.140;-75.616;2023-01-19T00:53:34;100598.38;;;-0.78
74915;BMP280;63475;45.140;-75.616;2023-01-19T00:54:35;100617.47;;;-0.74
74915;BMP280;63475;45.140;-75.616;2023-01-19T00:55:36;100605.31;;;-0.91
74915;BMP280;63475;45.140;-75.616;2023-01-19T00:56:37;100625.91;;;-0.86
74915;BMP280;63475;45.140;-75.616;2023-01-19T00:57:38;100621.47;;;-0.85
74915;BMP280;63475;45.140;-75.616;2023-01-19T00:58:39;100624.72;;;-0.88
74915;BMP280;63475;45.140;-75.616;2023-01-19T00:59:40;100635.13;;;-0.88
74915;BMP280;63475;45.140;-75.616;2023-01-19T01:00:41;100637.13;;;-0.94
74915;BMP280;63475;45.140;-75.616;2023-01-19T01:01:42;100630.47;;;-1.03
74915;BMP280;63475;45.140;-75.616;2023-01-19T01:02:43;100646.97;;;-0.99
74915;BMP280;63475;45.140;-75.616;2023-01-19T01:03:44;100618.16;;;-1.15
74915;BMP280;63475;45.140;-75.616;2023-01-19T01:04:45;100634.47;;;-1.06
74915;BMP280;63475;45.140;-75.616;2023-01-19T01:05:48;100623.03;;;-1.13
74915;BMP280;63475;45.140;-75.616;2023-01-19T01:06:48;100645.00;;;-1.02
74915;BMP280;63475;45.140;-75.616;2023-01-19T01:07:49;100640.41;;;-1.05
74915;BMP280;63475;45.140;-75.616;2023-01-19T01:08:50;100637.19;;;-1.02
74915;BMP280;63475;45.140;-75.616;2023-01-19T01:09:52;100595.00;;;-1.29
74915;BMP280;63475;45.140;-75.616;2023-01-19T01:10:53;100627.88;;;-1.03
74915;BMP280;63475;45.140;-75.616;2023-01-19T01:11:54;100629.25;;;-1.06
74915;BMP280;63475;45.140;-75.616;2023-01-19T01:12:56;100635.66;;;-1.03
74915;BMP280;63475;45.140;-75.616;2023-01-19T01:13:57;100634.31;;;-1.09
74915;BMP280;63475;45.140;-75.616;2023-01-19T01:14:57;100578.13;;;-1.52
74915;BMP280;63475;45.140;-75.616;2023-01-19T01:15:58;100627.19;;;-1.21
74915;BMP280;63475;45.140;-75.616;2023-01-19T01:16:59;100651.44;;;-1.08
74915;BMP280;63475;45.140;-75.616;2023-01-19T01:18:00;100647.78;;;-1.07
74915;BMP280;63475;45.140;-75.616;2023-01-19T01:19:01;100640.47;;;-1.14
74915;BMP280;63475;45.140;-75.616;2023-01-19T01:20:03;100633.25;;;-1.17
74915;BMP280;63475;45.140;-75.616;2023-01-19T01:21:05;100644.72;;;-1.09
74915;BMP280;63475;45.140;-75.616;2023-01-19T01:22:08;100639.06;;;-1.11
74915;BMP280;63475;45.140;-75.616;2023-01-19T01:23:09;100635.25;;;-1.14
74915;BMP280;63475;45.140;-75.616;2023-01-19T01:24:10;100624.59;;;-1.21
74915;BMP280;63475;45.140;-75.616;2023-01-19T01:25:13;100637.56;;;-1.12
74915;BMP280;63475;45.140;-75.616;2023-01-19T01:26:14;100632.94;;;-1.15
74915;BMP280;63475;45.140;-75.616;2023-01-19T01:27:15;100639.69;;;-1.14
74915;BMP280;63475;45.140;-75.616;2023-01-19T01:28:16;100638.66;;;-1.22
74915;BMP280;63475;45.140;-75.616;2023-01-19T01:29:16;100647.78;;;-1.16
74915;BMP280;63475;45.140;-75.616;2023-01-19T01:30:18;100639.44;;;-1.22
74915;BMP280;63475;45.140;-75.616;2023-01-19T01:31:19;100641.41;;;-1.19
74915;BMP280;63475;45.140;-75.616;2023-01-19T01:32:20;100639.75;;;-1.23
74915;BMP280;63475;45.140;-75.616;2023-01-19T01:33:21;100634.69;;;-1.20
74915;BMP280;63475;45.140;-75.616;2023-01-19T01:34:22;100636.63;;;-1.17
74915;BMP280;63475;45.140;-75.616;2023-01-19T01:35:23;100623.38;;;-1.24
74915;BMP280;63475;45.140;-75.616;2023-01-19T01:36:24;100629.16;;;-1.18
74915;BMP280;63475;45.140;-75.616;2023-01-19T01:37:28;100625.69;;;-1.22
74915;BMP280;63475;45.140;-75.616;2023-01-19T01:38:29;100632.09;;;-1.20
74915;BMP280;63475;45.140;-75.616;2023-01-19T01:39:30;100636.84;;;-1.22
74915;BMP280;63475;45.140;-75.616;2023-01-19T01:40:31;100642.78;;;-1.21
74915;BMP280;63475;45.140;-75.616;2023-01-19T01:41:32;100624.38;;;-1.37
74915;BMP280;63475;45.140;-75.616;2023-01-19T01:42:33;100643.09;;;-1.23
74915;BMP280;63475;45.140;-75.616;2023-01-19T01:43:46;100647.53;;;-1.23
74915;BMP280;63475;45.140;-75.616;2023-01-19T01:44:59;100625.44;;;-1.38
74915;BMP280;63475;45.140;-75.616;2023-01-19T01:46:00;100605.91;;;-1.44
74915;BMP280;63475;45.140;-75.616;2023-01-19T01:47:01;100627.41;;;-1.35
74915;BMP280;63475;45.140;-75.616;2023-01-19T01:48:20;100614.28;;;-1.38
74915;BMP280;63475;45.140;-75.616;2023-01-19T01:49:24;100630.91;;;-1.31
74915;BMP280;63475;45.140;-75.616;2023-01-19T01:50:27;100618.38;;;-1.29
74915;BMP280;63475;45.140;-75.616;2023-01-19T01:51:38;100618.22;;;-1.32
74915;BMP280;63475;45.140;-75.616;2023-01-19T01:53:07;100621.59;;;-1.32
74915;BMP280;63475;45.140;-75.616;2023-01-19T01:54:24;100610.31;;;-1.36
74915;BMP280;63475;45.140;-75.616;2023-01-19T01:55:27;100602.41;;;-1.48
74915;BMP280;63475;45.140;-75.616;2023-01-19T01:56:34;100613.97;;;-1.37
74915;BMP280;63475;45.140;-75.616;2023-01-19T01:57:39;100615.81;;;-1.37
74915;BMP280;63475;45.140;-75.616;2023-01-19T01:58:41;100581.19;;;-1.50
74915;BMP280;63475;45.140;-75.616;2023-01-19T01:59:46;100605.41;;;-1.37
74915;BMP280;63475;45.140;-75.616;2023-01-19T02:00:48;100596.09;;;-1.38
74915;BMP280;63475;45.140;-75.616;2023-01-19T02:02:13;100597.50;;;-1.41
74915;BMP280;63475;45.140;-75.616;2023-01-19T02:03:33;100590.47;;;-1.40
74915;BMP280;63475;45.140;-75.616;2023-01-19T02:04:34;100576.28;;;-1.52
74915;BMP280;63475;45.140;-75.616;2023-01-19T02:05:35;100591.53;;;-1.41
74915;BMP280;63475;45.140;-75.616;2023-01-19T02:06:36;100577.66;;;-1.45
74915;BMP280;63475;45.140;-75.616;2023-01-19T02:08:19;100592.00;;;-1.39
74915;BMP280;63475;45.140;-75.616;2023-01-19T02:09:42;100601.16;;;-1.42
74915;BMP280;63475;45.140;-75.616;2023-01-19T02:11:02;100570.03;;;-1.59
74915;BMP280;63475;45.140;-75.616;2023-01-19T02:12:22;100595.97;;;-1.42
74915;BMP280;63475;45.140;-75.616;2023-01-19T02:13:42;100545.69;;;-1.75
74915;BMP280;63475;45.140;-75.616;2023-01-19T02:14:47;100593.56;;;-1.47
74915;BMP280;63475;45.140;-75.616;2023-01-19T02:16:00;100596.41;;;-1.40
74915;BMP280;63475;45.140;-75.616;2023-01-19T02:17:03;100577.34;;;-1.53
74915;BMP280;63475;45.140;-75.616;2023-01-19T02:18:04;100559.84;;;-1.64
74915;BMP280;63475;45.140;-75.616;2023-01-19T02:19:07;100589.69;;;-1.41
74915;BMP280;63475;45.140;-75.616;2023-01-19T02:20:09;100572.97;;;-1.61
74915;BMP280;63475;45.140;-75.616;2023-01-19T02:21:12;100593.81;;;-1.40
74915;BMP280;63475;45.140;-75.616;2023-01-19T02:22:24;100600.09;;;-1.41
74915;BMP280;63475;45.140;-75.616;2023-01-19T02:24:36;100570.03;;;-1.59
74915;BMP280;63475;45.140;-75.616;2023-01-19T02:25:38;100558.03;;;-1.72
74915;BMP280;63475;45.140;-75.616;2023-01-19T02:26:43;100605.16;;;-1.44
74915;BMP280;63475;45.140;-75.616;2023-01-19T02:27:45;100609.28;;;-1.43
74915;BMP280;63475;45.140;-75.616;2023-01-19T02:28:56;100609.13;;;-1.47
74915;BMP280;63475;45.140;-75.616;2023-01-19T02:29:59;100607.16;;;-1.50
74915;BMP280;63475;45.140;-75.616;2023-01-19T02:31:03;100593.56;;;-1.47
74915;BMP280;63475;45.140;-75.616;2023-01-19T02:32:04;100590.97;;;-1.47
74915;BMP280;63475;45.140;-75.616;2023-01-19T02:33:05;100589.56;;;-1.44
74915;BMP280;63475;45.140;-75.616;2023-01-19T02:34:12;100589.88;;;-1.46
74915;BMP280;63475;45.140;-75.616;2023-01-19T02:35:15;100558.75;;;-1.63
74915;BMP280;63475;45.140;-75.616;2023-01-19T02:36:19;100597.03;;;-1.43
74915;BMP280;63475;45.140;-75.616;2023-01-19T02:37:20;100561.22;;;-1.67
74915;BMP280;63475;45.140;-75.616;2023-01-19T02:38:24;100527.53;;;-1.93
74915;BMP280;63475;45.140;-75.616;2023-01-19T02:39:36;100610.03;;;-1.43
74915;BMP280;63475;45.140;-75.616;2023-01-19T02:40:40;100615.41;;;-1.48
74915;BMP280;63475;45.140;-75.616;2023-01-19T02:41:45;100614.31;;;-1.47
74915;BMP280;63475;45.140;-75.616;2023-01-19T02:42:51;100600.59;;;-1.56
74915;BMP280;63475;45.140;-75.616;2023-01-19T02:43:53;100622.75;;;-1.50
74915;BMP280;63475;45.140;-75.616;2023-01-19T02:44:56;100623.78;;;-1.51
74915;BMP280;63475;45.140;-75.616;2023-01-19T02:45:57;100603.97;;;-1.64
74915;BMP280;63475;45.140;-75.616;2023-01-19T02:46:57;100589.06;;;-1.76
74915;BMP280;63475;45.140;-75.616;2023-01-19T02:47:58;100612.81;;;-1.57
74915;BMP280;63475;45.140;-75.616;2023-01-19T02:49:00;100618.91;;;-1.53
74915;BMP280;63475;45.140;-75.616;2023-01-19T02:50:01;100627.47;;;-1.52
74915;BMP280;63475;45.140;-75.616;2023-01-19T02:51:22;100619.22;;;-1.54
74915;BMP280;63475;45.140;-75.616;2023-01-19T02:52:24;100605.22;;;-1.70
74915;BMP280;63475;45.140;-75.616;2023-01-19T02:55:52;100636.50;;;-1.58
74915;BMP280;63475;45.140;-75.616;2023-01-19T02:58:22;100640.97;;;-1.67
74915;BMP280;63475;45.140;-75.616;2023-01-19T02:59:37;100631.66;;;-1.77
74915;BMP280;63475;45.140;-75.616;2023-01-19T03:03:47;100662.69;;;-1.80
74915;BMP280;63475;45.140;-75.616;2023-01-19T03:06:39;100667.69;;;-1.93
74915;BMP280;63475;45.140;-75.616;2023-01-19T03:09:02;100684.31;;;-1.85
74915;BMP280;63475;45.140;-75.616;2023-01-19T03:10:14;100681.72;;;-1.85
74915;BMP280;63475;45.140;-75.616;2023-01-19T03:11:17;100682.97;;;-1.83
74915;BMP280;63475;45.140;-75.616;2023-01-19T03:12:30;100679.31;;;-1.82
74915;BMP280;63475;45.140;-75.616;2023-01-19T03:14:56;100669.66;;;-1.98
74915;BMP280;63475;45.140;-75.616;2023-01-19T03:16:00;100688.28;;;-1.88
74915;BMP280;63475;45.140;-75.616;2023-01-19T03:17:06;100695.63;;;-1.90
74915;BMP280;63475;45.140;-75.616;2023-01-19T03:18:10;100703.09;;;-1.97
74915;BMP280;63475;45.140;-75.616;2023-01-19T03:20:21;100702.81;;;-2.04
74915;BMP280;63475;45.140;-75.616;2023-01-19T03:21:26;100695.47;;;-2.10
74915;BMP280;63475;45.140;-75.616;2023-01-19T03:22:28;100694.88;;;-2.16
74915;BMP280;63475;45.140;-75.616;2023-01-19T03:23:30;100704.03;;;-2.10
74915;BMP280;63475;45.140;-75.616;2023-01-19T03:24:34;100707.22;;;-2.13
74915;BMP280;63475;45.140;-75.616;2023-01-19T03:25:39;100717.16;;;-2.15
74915;BMP280;63475;45.140;-75.616;2023-01-19T03:26:44;100702.00;;;-2.30
74915;BMP280;63475;45.140;-75.616;2023-01-19T03:27:47;100717.75;;;-2.18
74915;BMP280;63475;45.140;-75.616;2023-01-19T03:28:50;100717.28;;;-2.20
74915;BMP280;63475;45.140;-75.616;2023-01-19T03:29:58;100705.81;;;-2.28
74915;BMP280;63475;45.140;-75.616;2023-01-19T03:31:12;100696.38;;;-2.32
74915;BMP280;63475;45.140;-75.616;2023-01-19T03:32:16;100718.97;;;-2.16
74915;BMP280;63475;45.140;-75.616;2023-01-19T03:33:28;100702.63;;;-2.33
74915;BMP280;63475;45.140;-75.616;2023-01-19T03:34:30;100726.63;;;-2.19
74915;BMP280;63475;45.140;-75.616;2023-01-19T03:35:34;100731.66;;;-2.14
74915;BMP280;63475;45.140;-75.616;2023-01-19T03:36:41;100722.66;;;-2.17
74915;BMP280;63475;45.140;-75.616;2023-01-19T03:37:45;100707.66;;;-2.28
74915;BMP280;63475;45.140;-75.616;2023-01-19T03:38:49;100727.84;;;-2.17
74915;BMP280;63475;45.140;-75.616;2023-01-19T03:39:50;100711.31;;;-2.21
74915;BMP280;63475;45.140;-75.616;2023-01-19T03:40:56;100695.91;;;-2.26
74915;BMP280;63475;45.140;-75.616;2023-01-19T03:42:03;100695.75;;;-2.29
74915;BMP280;63475;45.140;-75.616;2023-01-19T03:43:06;100719.13;;;-2.12
74915;BMP280;63475;45.140;-75.616;2023-01-19T03:44:08;100723.25;;;-2.11
74915;BMP280;63475;45.140;-75.616;2023-01-19T03:45:12;100726.63;;;-2.10
74915;BMP280;63475;45.140;-75.616;2023-01-19T03:46:14;100706.28;;;-2.26
74915;BMP280;63475;45.140;-75.616;2023-01-19T03:47:18;100701.84;;;-2.25
74915;BMP280;63475;45.140;-75.616;2023-01-19T03:48:20;100721.56;;;-2.16
74915;BMP280;63475;45.140;-75.616;2023-01-19T03:49:21;100708.72;;;-2.21
74915;BMP280;63475;45.140;-75.616;2023-01-19T03:50:25;100715.00;;;-2.13
74915;BMP280;63475;45.140;-75.616;2023-01-19T03:51:26;100714.56;;;-2.15
74915;BMP280;63475;45.140;-75.616;2023-01-19T03:52:28;100713.34;;;-2.18
74915;BMP280;63475;45.140;-75.616;2023-01-19T03:53:31;100715.75;;;-2.21
74915;BMP280;63475;45.140;-75.616;2023-01-19T03:54:32;100720.94;;;-2.21
74915;BMP280;63475;45.140;-75.616;2023-01-19T03:55:36;100690.56;;;-2.47
74915;BMP280;63475;45.140;-75.616;2023-01-19T03:56:37;100727.34;;;-2.27
74915;BMP280;63475;45.140;-75.616;2023-01-19T03:57:38;100729.31;;;-2.24
74915;BMP280;63475;45.140;-75.616;2023-01-19T03:58:39;100727.81;;;-2.25
74915;BMP280;63475;45.140;-75.616;2023-01-19T03:59:41;100698.63;;;-2.48
74915;BMP280;63475;45.140;-75.616;2023-01-19T04:00:42;100731.31;;;-2.30
74915;BMP280;63475;45.140;-75.616;2023-01-19T04:01:43;100726.41;;;-2.31
74915;BMP280;63475;45.140;-75.616;2023-01-19T04:02:44;100734.19;;;-2.31
74915;BMP280;63475;45.140;-75.616;2023-01-19T04:03:45;100728.56;;;-2.33
74915;BMP280;63475;45.140;-75.616;2023-01-19T04:04:46;100739.41;;;-2.23
74915;BMP280;63475;45.140;-75.616;2023-01-19T04:05:47;100714.81;;;-2.42
74915;BMP280;63475;45.140;-75.616;2023-01-19T04:06:49;100702.25;;;-2.58
74915;BMP280;63475;45.140;-75.616;2023-01-19T04:07:52;100749.31;;;-2.33
74915;BMP280;63475;45.140;-75.616;2023-01-19T04:08:53;100752.50;;;-2.36
74915;BMP280;63475;45.140;-75.616;2023-01-19T04:09:54;100749.00;;;-2.40
74915;BMP280;63475;45.140;-75.616;2023-01-19T04:10:56;100753.25;;;-2.45
74915;BMP280;63475;45.140;-75.616;2023-01-19T04:11:57;100749.44;;;-2.47
74915;BMP280;63475;45.140;-75.616;2023-01-19T04:13:01;100754.16;;;-2.49
74915;BMP280;63475;45.140;-75.616;2023-01-19T04:14:02;100735.34;;;-2.63
74915;BMP280;63475;45.140;-75.616;2023-01-19T04:15:04;100746.16;;;-2.61
74915;BMP280;63475;45.140;-75.616;2023-01-19T04:16:06;100753.34;;;-2.58
74915;BMP280;63475;45.140;-75.616;2023-01-19T04:17:07;100738.97;;;-2.73
74915;BMP280;63475;45.140;-75.616;2023-01-19T04:18:08;100751.19;;;-2.65
74915;BMP280;63475;45.140;-75.616;2023-01-19T04:19:09;100725.78;;;-2.85
74915;BMP280;63475;45.140;-75.616;2023-01-19T04:20:10;100741.84;;;-2.83
74915;BMP280;63475;45.140;-75.616;2023-01-19T04:21:11;100737.81;;;-2.89
74915;BMP280;63475;45.140;-75.616;2023-01-19T04:22:12;100762.00;;;-2.71
74915;BMP280;63475;45.140;-75.616;2023-01-19T04:23:13;100770.09;;;-2.64
74915;BMP280;63475;45.140;-75.616;2023-01-19T04:24:14;100764.91;;;-2.64
74915;BMP280;63475;45.140;-75.616;2023-01-19T04:25:15;100744.13;;;-2.82
74915;BMP280;63475;45.140;-75.616;2023-01-19T04:26:16;100767.50;;;-2.73
74915;BMP280;63475;45.140;-75.616;2023-01-19T04:27:17;100769.31;;;-2.73
74915;BMP280;63475;45.140;-75.616;2023-01-19T04:28:18;100762.84;;;-2.85
74915;BMP280;63475;45.140;-75.616;2023-01-19T04:29:19;100757.50;;;-2.88
74915;BMP280;63475;45.140;-75.616;2023-01-19T04:30:20;100753.19;;;-2.93
74915;BMP280;63475;45.140;-75.616;2023-01-19T04:31:22;100749.38;;;-2.95
74915;BMP280;63475;45.140;-75.616;2023-01-19T04:32:23;100744.44;;;-3.06
74915;BMP280;63475;45.140;-75.616;2023-01-19T04:33:24;100767.38;;;-2.90
74915;BMP280;63475;45.140;-75.616;2023-01-19T04:34:25;100745.50;;;-3.07
74915;BMP280;63475;45.140;-75.616;2023-01-19T04:35:26;100740.31;;;-3.07
74915;BMP280;63475;45.140;-75.616;2023-01-19T04:36:27;100764.75;;;-2.99
74915;BMP280;63475;45.140;-75.616;2023-01-19T04:37:27;100755.34;;;-3.17
74915;BMP280;63475;45.140;-75.616;2023-01-19T04:38:28;100769.41;;;-3.10
74915;BMP280;63475;45.140;-75.616;2023-01-19T04:39:29;100742.47;;;-3.31
74915;BMP280;63475;45.140;-75.616;2023-01-19T04:40:30;100749.63;;;-3.28
74915;BMP280;63475;45.140;-75.616;2023-01-19T04:41:31;100727.16;;;-3.41
74915;BMP280;63475;45.140;-75.616;2023-01-19T04:42:32;100756.25;;;-3.22
74915;BMP280;63475;45.140;-75.616;2023-01-19T04:43:33;100745.94;;;-3.36
74915;BMP280;63475;45.140;-75.616;2023-01-19T04:44:34;100735.97;;;-3.42
74915;BMP280;63475;45.140;-75.616;2023-01-19T04:45:35;100776.22;;;-3.22
74915;BMP280;63475;45.140;-75.616;2023-01-19T04:46:36;100750.91;;;-3.39
74915;BMP280;63475;45.140;-75.616;2023-01-19T04:47:37;100773.25;;;-3.29
74915;BMP280;63475;45.140;-75.616;2023-01-19T04:48:38;100764.72;;;-3.30
74915;BMP280;63475;45.140;-75.616;2023-01-19T04:49:39;100729.59;;;-3.58
74915;BMP280;63475;45.140;-75.616;2023-01-19T04:50:40;100740.69;;;-3.44
74915;BMP280;63475;45.140;-75.616;2023-01-19T04:51:41;100736.97;;;-3.52
74915;BMP280;63475;45.140;-75.616;2023-01-19T04:52:42;100737.16;;;-3.48
74915;BMP280;63475;45.140;-75.616;2023-01-19T04:53:43;100740.34;;;-3.51
74915;BMP280;63475;45.140;-75.616;2023-01-19T04:54:44;100761.41;;;-3.44
74915;BMP280;63475;45.140;-75.616;2023-01-19T04:55:45;100743.59;;;-3.59
74915;BMP280;63475;45.140;-75.616;2023-01-19T04:56:46;100773.75;;;-3.41
74915;BMP280;63475;45.140;-75.616;2023-01-19T04:57:47;100767.81;;;-3.42
74915;BMP280;63475;45.140;-75.616;2023-01-19T04:58:48;100740.25;;;-3.60
74915;BMP280;63475;45.140;-75.616;2023-01-19T04:59:49;100749.47;;;-3.54
74915;BMP280;63475;45.140;-75.616;2023-01-19T05:00:51;100755.41;;;-3.53
74915;BMP280;63475;45.140;-75.616;2023-01-19T05:01:52;100767.16;;;-3.47
74915;BMP280;63475;45.140;-75.616;2023-01-19T05:02:53;100764.06;;;-3.58
74915;BMP280;63475;45.140;-75.616;2023-01-19T05:03:54;100763.56;;;-3.60
74915;BMP280;63475;45.140;-75.616;2023-01-19T05:04:57;100787.22;;;-3.53
74915;BMP280;63475;45.140;-75.616;2023-01-19T05:05:58;100770.19;;;-3.68
74915;BMP280;63475;45.140;-75.616;2023-01-19T05:06:59;100791.94;;;-3.55
74915;BMP280;63475;45.140;-75.616;2023-01-19T05:08:00;100777.25;;;-3.59
74915;BMP280;63475;45.140;-75.616;2023-01-19T05:09:02;100722.91;;;-3.96
74915;BMP280;63475;45.140;-75.616;2023-01-19T05:10:03;100790.19;;;-3.59
74915;BMP280;63475;45.140;-75.616;2023-01-19T05:11:05;100800.09;;;-3.61
74915;BMP280;63475;45.140;-75.616;2023-01-19T05:12:06;100801.44;;;-3.64
74915;BMP280;63475;45.140;-75.616;2023-01-19T05:13:07;100779.13;;;-3.74
74915;BMP280;63475;45.140;-75.616;2023-01-19T05:14:08;100765.28;;;-3.91
74915;BMP280;63475;45.140;-75.616;2023-01-19T05:15:09;100790.06;;;-3.77
74915;BMP280;63475;45.140;-75.616;2023-01-19T05:16:10;100812.38;;;-3.67
74915;BMP280;63475;45.140;-75.616;2023-01-19T05:17:13;100776.47;;;-3.96
74915;BMP280;63475;45.140;-75.616;2023-01-19T05:18:14;100815.25;;;-3.69
74915;BMP280;63475;45.140;-75.616;2023-01-19T05:19:15;100795.44;;;-3.87
74915;BMP280;63475;45.140;-75.616;2023-01-19T05:20:16;100805.31;;;-3.75
74915;BMP280;63475;45.140;-75.616;2023-01-19T05:21:17;100786.16;;;-3.88
74915;BMP280;63475;45.140;-75.616;2023-01-19T05:22:18;100784.44;;;-3.79
74915;BMP280;63475;45.140;-75.616;2023-01-19T05:23:19;100770.81;;;-3.84
74915;BMP280;63475;45.140;-75.616;2023-01-19T05:24:20;100773.50;;;-3.89
74915;BMP280;63475;45.140;-75.616;2023-01-19T05:25:21;100795.31;;;-3.68
74915;BMP280;63475;45.140;-75.616;2023-01-19T05:26:22;100801.25;;;-3.68
74915;BMP280;63475;45.140;-75.616;2023-01-19T05:27:23;100802.50;;;-3.65
74915;BMP280;63475;45.140;-75.616;2023-01-19T05:28:24;100806.31;;;-3.62
74915;BMP280;63475;45.140;-75.616;2023-01-19T05:29:25;100786.78;;;-3.69
74915;BMP280;63475;45.140;-75.616;2023-01-19T05:30:25;100755.09;;;-3.88
74915;BMP280;63475;45.140;-75.616;2023-01-19T05:31:26;100792.91;;;-3.64
74915;BMP280;63475;45.140;-75.616;2023-01-19T05:32:27;100793.03;;;-3.70
74915;BMP280;63475;45.140;-75.616;2023-01-19T05:33:28;100777.22;;;-3.82
74915;BMP280;63475;45.140;-75.616;2023-01-19T05:34:29;100765.44;;;-3.88
74915;BMP280;63475;45.140;-75.616;2023-01-19T05:35:30;100773.78;;;-3.77
74915;BMP280;63475;45.140;-75.616;2023-01-19T05:36:31;100780.88;;;-3.83
74915;BMP280;63475;45.140;-75.616;2023-01-19T05:37:32;100789.38;;;-3.82
74915;BMP280;63475;45.140;-75.616;2023-01-19T05:38:33;100787.69;;;-3.87
74915;BMP280;63475;45.140;-75.616;2023-01-19T05:39:34;100799.56;;;-3.86
74915;BMP280;63475;45.140;-75.616;2023-01-19T05:40:34;100764.34;;;-4.09
74915;BMP280;63475;45.140;-75.616;2023-01-19T05:41:35;100783.28;;;-4.00
74915;BMP280;63475;45.140;-75.616;2023-01-19T05:42:37;100799.28;;;-3.98
74915;BMP280;63475;45.140;-75.616;2023-01-19T05:43:38;100778.41;;;-4.15
74915;BMP280;63475;45.140;-75.616;2023-01-19T05:44:39;100810.09;;;-3.96
74915;BMP280;63475;45.140;-75.616;2023-01-19T05:45:40;100810.56;;;-3.94
74915;BMP280;63475;45.140;-75.616;2023-01-19T05:46:41;100719.72;;;-4.42
74915;BMP280;63475;45.140;-75.616;2023-01-19T05:47:42;100776.03;;;-4.12
74915;BMP280;63475;45.140;-75.616;2023-01-19T05:48:42;100776.09;;;-4.17
74915;BMP280;63475;45.140;-75.616;2023-01-19T05:49:44;100813.44;;;-3.96
74915;BMP280;63475;45.140;-75.616;2023-01-19T05:50:45;100791.13;;;-4.19
74915;BMP280;63475;45.140;-75.616;2023-01-19T05:51:48;100802.72;;;-4.16
74915;BMP280;63475;45.140;-75.616;2023-01-19T05:52:49;100835.22;;;-4.10
74915;BMP280;63475;45.140;-75.616;2023-01-19T05:53:52;100807.59;;;-4.29
74915;BMP280;63475;45.140;-75.616;2023-01-19T05:54:53;100840.69;;;-4.12
74915;BMP280;63475;45.140;-75.616;2023-01-19T05:56:04;100831.19;;;-4.16
74915;BMP280;63475;45.140;-75.616;2023-01-19T05:57:07;100840.47;;;-4.15
74915;BMP280;63475;45.140;-75.616;2023-01-19T05:58:08;100835.41;;;-4.20
74915;BMP280;63475;45.140;-75.616;2023-01-19T05:59:09;100845.63;;;-4.15
74915;BMP280;63475;45.140;-75.616;2023-01-19T06:00:11;100829.56;;;-4.26